createdAt,value
2022-10-23T00:01:45.513Z,12.89
2022-10-23T00:04:22.247Z,12.96
2022-10-23T00:06:50.711Z,13.14
2022-10-23T00:09:24.313Z,13.20
2022-10-23T00:11:53.290Z,13.21
2022-10-23T00:14:24.894Z,13.10
2022-10-23T00:16:52.841Z,13.36
2022-10-23T00:19:20.330Z,13.64
2022-10-23T00:21:47.810Z,13.73
2022-10-23T00:24:15.354Z,13.80
2022-10-23T00:26:43.537Z,13.51
2022-10-23T00:29:11.693Z,13.20
2022-10-23T00:31:39.462Z,13.14
2022-10-23T00:34:08.528Z,13.11
2022-10-23T00:36:36.804Z,12.98
2022-10-23T00:39:05.503Z,13.15
2022-10-23T00:41:33.285Z,12.85
2022-10-23T00:44:18.912Z,12.74
2022-10-23T00:46:46.374Z,12.98
2022-10-23T00:49:15.719Z,13.12
2022-10-23T00:51:53.314Z,13.38
2022-10-23T00:54:28.004Z,13.27
2022-10-23T00:57:01.792Z,13.15
2022-10-23T00:59:31.627Z,13.02
2022-10-23T01:02:00.317Z,12.95
2022-10-23T01:04:29.963Z,13.00
2022-10-23T01:07:33.847Z,12.81
2022-10-23T01:11:10.853Z,12.57
2022-10-23T01:14:15.998Z,12.75
2022-10-23T01:17:13.200Z,12.68
2022-10-23T01:20:23.363Z,12.43
2022-10-23T01:23:47.294Z,12.54
2022-10-23T01:26:40.819Z,12.71
2022-10-23T01:29:32.999Z,13.29
2022-10-23T01:32:24.276Z,13.33
2022-10-23T01:35:09.202Z,13.07
2022-10-23T01:37:55.485Z,13.06
2022-10-23T01:40:54.905Z,13.29
2022-10-23T01:43:38.672Z,13.16
2022-10-23T01:46:14.673Z,12.96
2022-10-23T01:48:51.520Z,12.89
2022-10-23T01:51:23.253Z,12.77
2022-10-23T01:53:56.435Z,12.69
2022-10-23T01:56:32.275Z,12.69
2022-10-23T01:59:09.846Z,12.62
2022-10-23T02:01:47.167Z,12.81
2022-10-23T02:04:25.644Z,12.86
2022-10-23T02:06:53.234Z,13.13
2022-10-23T02:09:20.699Z,12.92
2022-10-23T02:12:07.004Z,13.35
2022-10-23T02:15:03.006Z,13.43
2022-10-23T02:17:59.492Z,13.36
2022-10-23T02:20:41.035Z,13.31
2022-10-23T02:23:33.308Z,13.18
2022-10-23T02:26:27.661Z,13.49
2022-10-23T02:29:11.247Z,13.34
2022-10-23T02:31:42.769Z,13.13
2022-10-23T02:34:10.526Z,13.17
2022-10-23T02:36:37.996Z,12.99
2022-10-23T02:39:06.060Z,13.07
2022-10-23T02:41:53.933Z,13.14
2022-10-23T02:44:45.620Z,13.27
2022-10-23T02:47:57.097Z,13.06
2022-10-23T02:50:57.027Z,12.92
2022-10-23T02:53:43.553Z,13.15
2022-10-23T02:56:38.621Z,12.98
2022-10-23T02:59:16.584Z,12.81
2022-10-23T03:01:55.469Z,12.83
2022-10-23T03:04:27.701Z,12.91
2022-10-23T03:06:56.577Z,13.19
2022-10-23T03:09:27.287Z,13.18
2022-10-23T03:11:54.518Z,13.00
2022-10-23T03:14:21.712Z,12.99
2022-10-23T03:16:50.770Z,13.09
2022-10-23T03:19:18.106Z,13.12
2022-10-23T03:21:45.238Z,12.82
2022-10-23T03:24:13.033Z,12.80
2022-10-23T03:26:43.587Z,12.86
2022-10-23T03:29:11.007Z,12.71
2022-10-23T03:31:44.435Z,12.89
2022-10-23T03:34:11.874Z,12.86
2022-10-23T03:36:41.622Z,12.94
2022-10-23T03:39:11.071Z,13.00
2022-10-23T03:41:38.978Z,13.03
2022-10-23T03:44:06.328Z,13.20
2022-10-23T03:46:33.560Z,13.13
2022-10-23T03:49:00.872Z,13.33
2022-10-23T03:51:28.174Z,13.21
2022-10-23T03:53:55.621Z,13.33
2022-10-23T03:56:23.394Z,13.18
2022-10-23T03:58:50.749Z,13.06
2022-10-23T04:01:18.066Z,12.98
2022-10-23T04:03:46.450Z,13.11
2022-10-23T04:06:16.207Z,13.09
2022-10-23T04:08:45.678Z,13.10
2022-10-23T04:11:16.068Z,13.01
2022-10-23T04:13:46.574Z,12.73
2022-10-23T04:16:13.756Z,12.80
2022-10-23T04:18:42.308Z,12.84
2022-10-23T04:21:12.154Z,12.88
2022-10-23T04:23:46.447Z,12.99
2022-10-23T04:26:17.482Z,12.73
2022-10-23T04:28:45.086Z,12.66
2022-10-23T04:31:12.629Z,12.99
2022-10-23T04:33:41.964Z,12.83
2022-10-23T04:36:10.166Z,13.07
2022-10-23T04:38:37.695Z,13.08
2022-10-23T04:41:07.149Z,13.00
2022-10-23T04:43:34.879Z,13.10
2022-10-23T04:46:04.012Z,13.15
2022-10-23T04:48:31.840Z,13.20
2022-10-23T04:51:22.235Z,13.70
2022-10-23T04:54:05.584Z,13.89
2022-10-23T04:56:45.684Z,13.80
2022-10-23T04:59:16.744Z,13.53
2022-10-23T05:01:44.943Z,13.23
2022-10-23T05:04:14.377Z,13.21
2022-10-23T05:07:01.993Z,13.23
2022-10-23T05:10:08.652Z,13.28
2022-10-23T05:12:45.590Z,13.21
2022-10-23T05:15:12.775Z,13.11
2022-10-23T05:17:47.189Z,13.32
2022-10-23T05:20:22.413Z,13.26
2022-10-23T05:22:53.205Z,13.25
2022-10-23T05:25:24.581Z,13.03
2022-10-23T05:28:00.452Z,13.03
2022-10-23T05:30:27.979Z,13.00
2022-10-23T05:32:55.498Z,13.00
2022-10-23T05:35:25.936Z,13.12
2022-10-23T05:37:56.146Z,13.54
2022-10-23T05:40:26.582Z,13.51
2022-10-23T05:42:59.759Z,13.55
2022-10-23T05:45:55.912Z,13.58
2022-10-23T05:51:49.200Z,13.39
2022-10-23T05:54:28.987Z,13.21
2022-10-23T05:57:14.797Z,13.73
2022-10-23T05:59:45.505Z,13.52
2022-10-23T06:02:33.630Z,13.41
2022-10-23T06:05:11.171Z,13.45
2022-10-23T06:07:59.545Z,13.18
2022-10-23T06:10:28.156Z,13.30
2022-10-23T06:12:58.033Z,13.51
2022-10-23T06:15:26.804Z,13.49
2022-10-23T06:18:05.069Z,13.33
2022-10-23T06:20:40.192Z,13.49
2022-10-23T06:23:16.872Z,13.64
2022-10-23T06:26:05.381Z,13.61
2022-10-23T06:28:41.245Z,13.65
2022-10-23T06:31:13.302Z,13.69
2022-10-23T06:33:42.079Z,13.89
2022-10-23T06:36:10.842Z,13.88
2022-10-23T06:38:40.991Z,14.17
2022-10-23T06:41:20.280Z,14.19
2022-10-23T06:43:53.325Z,14.63
2022-10-23T06:46:40.820Z,14.39
2022-10-23T06:49:33.727Z,14.39
2022-10-23T06:52:02.462Z,14.49
2022-10-23T06:54:29.632Z,14.27
2022-10-23T06:57:19.598Z,14.60
2022-10-23T06:59:47.560Z,15.03
2022-10-23T07:02:17.391Z,15.32
2022-10-23T07:04:45.178Z,15.05
2022-10-23T07:07:18.162Z,15.59
2022-10-23T07:09:48.197Z,15.59
2022-10-23T07:12:39.408Z,15.99
2022-10-23T07:15:32.285Z,15.86
2022-10-23T07:17:59.662Z,16.08
2022-10-23T07:20:34.084Z,15.89
2022-10-23T07:23:01.345Z,16.12
2022-10-23T07:25:34.442Z,16.12
2022-10-23T07:28:01.832Z,16.39
2022-10-23T07:30:31.827Z,16.76
2022-10-23T07:33:01.745Z,16.62
2022-10-23T07:35:34.278Z,16.83
2022-10-23T07:38:07.739Z,16.62
2022-10-23T07:40:38.564Z,17.02
2022-10-23T07:43:08.035Z,17.37
2022-10-23T07:45:35.346Z,17.83
2022-10-23T07:48:09.496Z,17.99
2022-10-23T07:51:14.893Z,18.12
2022-10-23T07:53:45.660Z,18.50
2022-10-23T07:56:45.204Z,18.61
2022-10-23T07:59:24.546Z,18.74
2022-10-23T08:01:56.533Z,19.36
2022-10-23T08:07:07.014Z,19.63
2022-10-23T08:09:40.309Z,20.31
2022-10-23T08:12:09.925Z,21.25
2022-10-23T08:14:37.255Z,22.46
2022-10-23T08:17:05.249Z,22.63
2022-10-23T08:20:02.354Z,22.80
2022-10-23T08:22:37.127Z,24.08
2022-10-23T08:25:05.559Z,25.49
2022-10-23T08:27:32.885Z,26.16
2022-10-23T08:30:00.165Z,27.80
2022-10-23T08:32:32.013Z,29.04
2022-10-23T08:35:00.835Z,31.40
2022-10-23T08:37:34.298Z,33.60
2022-10-23T08:40:01.886Z,33.69
2022-10-23T08:43:16.171Z,32.38
2022-10-23T08:46:09.390Z,30.57
2022-10-23T08:49:34.781Z,29.56
2022-10-23T08:52:46.844Z,28.31
2022-10-23T08:55:35.557Z,27.69
2022-10-23T08:58:29.629Z,27.39
2022-10-23T09:00:56.877Z,27.85
2022-10-23T09:03:24.248Z,28.03
2022-10-23T09:06:09.719Z,28.29
2022-10-23T09:09:14.519Z,29.05
2022-10-23T09:12:12.816Z,30.59
2022-10-23T09:15:04.811Z,33.23
2022-10-23T09:17:40.967Z,35.56
2022-10-23T09:20:28.243Z,37.93
2022-10-23T09:23:23.307Z,38.69
2022-10-23T09:25:56.920Z,38.52
2022-10-23T09:28:47.328Z,39.21
2022-10-23T09:31:14.934Z,40.41
2022-10-23T09:33:56.205Z,40.65
2022-10-23T09:36:27.502Z,40.53
2022-10-23T09:38:59.128Z,41.28
2022-10-23T09:41:38.578Z,40.76
2022-10-23T09:44:08.791Z,39.85
2022-10-23T09:49:30.763Z,40.20
2022-10-23T09:52:41.520Z,40.01
2022-10-23T09:55:36.995Z,38.94
2022-10-23T09:58:05.412Z,39.50
2022-10-23T10:00:33.409Z,39.11
2022-10-23T10:03:07.179Z,40.26
2022-10-23T10:05:43.914Z,38.93
2022-10-23T10:08:47.730Z,38.89
2022-10-23T10:11:52.912Z,38.85
2022-10-23T10:14:54.443Z,37.96
2022-10-23T10:17:43.343Z,38.26
2022-10-23T10:20:43.017Z,38.37
2022-10-23T10:23:55.777Z,36.56
2022-10-23T10:27:18.552Z,35.13
2022-10-23T10:30:15.871Z,35.63
2022-10-23T10:33:18.389Z,36.03
2022-10-23T10:36:05.313Z,37.36
2022-10-23T10:38:51.938Z,38.62
2022-10-23T10:42:00.965Z,37.76
2022-10-23T10:45:17.129Z,36.62
2022-10-23T10:48:23.769Z,37.19
2022-10-23T10:51:51.861Z,36.89
2022-10-23T10:55:09.734Z,35.52
2022-10-23T10:57:45.587Z,35.35
2022-10-23T11:00:19.813Z,35.44
2022-10-23T11:03:24.810Z,34.93
2022-10-23T11:06:01.141Z,34.14
2022-10-23T11:08:50.137Z,33.88
2022-10-23T11:11:40.876Z,34.17
2022-10-23T11:14:33.722Z,33.63
2022-10-23T11:17:16.965Z,32.63
2022-10-23T11:20:10.381Z,31.52
2022-10-23T11:22:47.473Z,30.84
2022-10-23T11:25:51.485Z,29.74
2022-10-23T11:29:11.010Z,29.67
2022-10-23T11:32:35.038Z,28.85
2022-10-23T11:35:26.574Z,28.80
2022-10-23T11:38:17.476Z,28.12
2022-10-23T11:40:55.909Z,27.59
2022-10-23T11:43:27.793Z,27.83
2022-10-23T11:45:55.421Z,27.50
2022-10-23T11:48:41.697Z,27.08
2022-10-23T11:51:32.661Z,27.44
2022-10-23T11:54:12.296Z,27.47
2022-10-23T11:57:15.695Z,27.60
2022-10-23T11:59:48.602Z,27.85
2022-10-23T12:02:38.365Z,28.71
2022-10-23T12:05:34.835Z,29.04
2022-10-23T12:08:24.456Z,29.30
2022-10-23T12:10:52.916Z,29.75
2022-10-23T12:13:38.510Z,30.25
2022-10-23T12:16:10.061Z,30.64
2022-10-23T12:18:53.612Z,30.40
2022-10-23T12:21:28.264Z,30.91
2022-10-23T12:24:22.681Z,31.63
2022-10-23T12:27:23.226Z,31.57
2022-10-23T12:30:22.703Z,31.00
2022-10-23T12:33:26.479Z,30.99
2022-10-23T12:36:44.596Z,30.91
2022-10-23T12:39:39.064Z,31.25
2022-10-23T12:42:30.571Z,31.24
2022-10-23T12:45:30.390Z,31.46
2022-10-23T12:47:58.075Z,31.67
2022-10-23T12:50:30.715Z,31.90
2022-10-23T12:53:07.659Z,32.54
2022-10-23T12:56:07.113Z,33.31
2022-10-23T12:58:37.432Z,33.50
2022-10-23T13:01:07.774Z,33.78
2022-10-23T13:03:36.169Z,34.53
2022-10-23T13:06:04.838Z,35.27
2022-10-23T13:08:46.097Z,35.77
2022-10-23T13:11:28.409Z,35.76
2022-10-23T13:13:58.852Z,36.13
2022-10-23T13:16:27.122Z,36.32
2022-10-23T13:18:54.386Z,36.43
2022-10-23T13:21:25.648Z,36.60
2022-10-23T13:23:54.100Z,36.55
2022-10-23T13:26:44.894Z,35.79
2022-10-23T13:29:22.227Z,34.87
2022-10-23T13:31:51.024Z,34.97
2022-10-23T13:34:30.385Z,34.59
2022-10-23T13:37:28.552Z,33.44
2022-10-23T13:40:09.636Z,32.27
2022-10-23T13:42:39.855Z,31.61
2022-10-23T13:45:22.974Z,31.52
2022-10-23T13:47:51.009Z,31.60
2022-10-23T13:50:20.474Z,31.39
2022-10-23T13:52:48.946Z,31.17
2022-10-23T13:55:25.148Z,30.87
2022-10-23T13:57:53.186Z,30.42
2022-10-23T14:00:21.209Z,30.17
2022-10-23T14:02:48.723Z,29.95
2022-10-23T14:05:17.368Z,29.80
2022-10-23T14:07:45.283Z,29.61
2022-10-23T14:10:13.253Z,29.40
2022-10-23T14:12:44.257Z,29.03
2022-10-23T14:15:12.860Z,28.83
2022-10-23T14:17:40.188Z,28.84
2022-10-23T14:20:09.798Z,28.69
2022-10-23T14:22:37.293Z,28.42
2022-10-23T14:25:08.848Z,28.31
2022-10-23T14:27:36.488Z,28.30
2022-10-23T14:30:05.950Z,28.09
2022-10-23T14:32:33.187Z,27.73
2022-10-23T14:35:03.774Z,27.32
2022-10-23T14:37:35.213Z,27.28
2022-10-23T14:40:02.784Z,27.22
2022-10-23T14:42:34.318Z,27.08
2022-10-23T14:45:05.196Z,26.97
2022-10-23T14:47:33.080Z,26.91
2022-10-23T14:50:01.188Z,27.08
2022-10-23T14:52:28.596Z,27.01
2022-10-23T14:55:01.926Z,27.05
2022-10-23T14:57:56.689Z,26.88
2022-10-23T15:00:24.334Z,26.95
2022-10-23T15:02:51.699Z,26.67
2022-10-23T15:05:19.205Z,26.10
2022-10-23T15:07:46.404Z,26.09
2022-10-23T15:10:13.612Z,26.11
2022-10-23T15:12:41.135Z,26.16
2022-10-23T15:15:09.681Z,26.26
2022-10-23T15:17:39.066Z,26.48
2022-10-23T15:20:07.943Z,26.38
2022-10-23T15:22:35.114Z,26.24
2022-10-23T15:25:02.330Z,25.99
2022-10-23T15:27:29.628Z,25.72
2022-10-23T15:29:56.774Z,25.73
2022-10-23T15:32:24.092Z,25.46
2022-10-23T15:34:52.378Z,25.42
2022-10-23T15:37:19.639Z,25.17
2022-10-23T15:39:46.805Z,25.05
2022-10-23T15:42:19.681Z,25.25
2022-10-23T15:44:53.916Z,24.82
2022-10-23T15:47:23.366Z,24.62
2022-10-23T15:49:50.497Z,24.36
2022-10-23T15:52:17.673Z,24.39
2022-10-23T15:54:44.787Z,24.39
2022-10-23T15:57:11.979Z,24.33
2022-10-23T15:59:39.222Z,24.44
2022-10-23T16:02:06.578Z,24.28
2022-10-23T16:04:35.278Z,24.15
2022-10-23T16:07:02.414Z,24.10
2022-10-23T16:09:29.850Z,24.05
2022-10-23T16:11:57.016Z,23.85
2022-10-23T16:14:24.659Z,23.89
2022-10-23T16:16:52.273Z,23.75
2022-10-23T16:19:19.657Z,23.47
2022-10-23T16:21:46.895Z,23.28
2022-10-23T16:24:14.283Z,23.14
2022-10-23T16:26:41.645Z,22.85
2022-10-23T16:29:09.958Z,22.27
2022-10-23T16:31:37.940Z,22.28
2022-10-23T16:34:07.792Z,22.36
2022-10-23T16:36:39.000Z,22.39
2022-10-23T16:39:31.424Z,22.38
2022-10-23T16:42:28.337Z,22.32
2022-10-23T16:45:14.654Z,22.23
2022-10-23T16:47:42.035Z,22.27
2022-10-23T16:50:09.515Z,22.44
2022-10-23T16:52:36.722Z,22.66
2022-10-23T16:55:10.812Z,22.49
2022-10-23T16:57:38.526Z,22.20
2022-10-23T17:00:07.541Z,22.04
2022-10-23T17:02:35.229Z,22.09
2022-10-23T17:05:02.706Z,22.44
2022-10-23T17:07:30.678Z,22.47
2022-10-23T17:09:57.830Z,22.34
2022-10-23T17:12:25.051Z,22.16
2022-10-23T17:14:52.507Z,22.29
2022-10-23T17:17:19.960Z,22.34
2022-10-23T17:19:47.240Z,22.43
2022-10-23T17:22:15.449Z,22.34
2022-10-23T17:24:46.294Z,22.14
2022-10-23T17:27:16.268Z,22.15
2022-10-23T17:29:43.601Z,22.12
2022-10-23T17:32:11.124Z,22.17
2022-10-23T17:34:38.383Z,21.82
2022-10-23T17:37:05.633Z,21.98
2022-10-23T17:39:33.161Z,22.02
2022-10-23T17:42:00.516Z,22.09
2022-10-23T17:44:29.078Z,22.11
2022-10-23T17:46:59.591Z,22.03
2022-10-23T17:49:26.749Z,22.14
2022-10-23T17:51:57.560Z,22.52
2022-10-23T17:54:27.166Z,22.62
2022-10-23T17:56:54.927Z,22.05
2022-10-23T17:59:22.366Z,21.93
2022-10-23T18:01:50.185Z,22.26
2022-10-23T18:04:20.618Z,22.04
2022-10-23T18:06:53.716Z,21.75
2022-10-23T18:09:23.411Z,21.48
2022-10-23T18:11:52.671Z,21.80
2022-10-23T18:14:26.109Z,22.16
2022-10-23T18:16:55.952Z,21.96
2022-10-23T18:19:23.117Z,21.70
2022-10-23T18:21:50.475Z,21.54
2022-10-23T18:24:19.035Z,21.59
2022-10-23T18:26:50.105Z,21.55
2022-10-23T18:29:17.944Z,21.78
2022-10-23T18:31:48.069Z,21.34
2022-10-23T18:34:23.400Z,21.07
2022-10-23T18:36:55.708Z,21.20
2022-10-23T18:39:25.555Z,21.26
2022-10-23T18:41:57.961Z,21.41
2022-10-23T18:44:29.039Z,21.50
2022-10-23T18:46:59.060Z,21.64
2022-10-23T18:49:27.261Z,21.73
2022-10-23T18:51:54.843Z,21.99
2022-10-23T18:54:22.518Z,21.89
2022-10-23T18:56:50.392Z,21.17
2022-10-23T18:59:20.728Z,21.33
2022-10-23T19:01:49.206Z,21.73
2022-10-23T19:04:18.343Z,21.04
2022-10-23T19:06:48.583Z,21.36
2022-10-23T19:09:16.858Z,21.50
2022-10-23T19:11:45.636Z,21.24
2022-10-23T19:14:13.259Z,21.13
2022-10-23T19:16:58.591Z,21.22
2022-10-23T19:19:36.588Z,21.42
2022-10-23T19:22:04.961Z,21.71
2022-10-23T19:24:51.116Z,22.00
2022-10-23T19:27:19.796Z,21.67
2022-10-23T19:29:51.855Z,22.22
2022-10-23T19:32:19.068Z,21.90
2022-10-23T19:34:46.393Z,22.10
2022-10-23T19:39:47.186Z,21.57
2022-10-23T19:42:14.538Z,21.61
2022-10-23T19:44:41.729Z,21.59
2022-10-23T19:47:08.946Z,21.61
2022-10-23T19:49:36.061Z,21.77
2022-10-23T19:52:03.358Z,21.76
2022-10-23T19:54:31.634Z,21.53
2022-10-23T19:56:59.109Z,21.50
2022-10-23T19:59:26.239Z,21.70
2022-10-23T20:01:53.540Z,21.37
2022-10-23T20:04:20.759Z,21.41
2022-10-23T20:06:48.012Z,21.44
2022-10-23T20:09:15.943Z,21.49
2022-10-23T20:11:45.110Z,21.55
2022-10-23T20:14:13.852Z,21.41
2022-10-23T20:16:45.258Z,21.31
2022-10-23T20:21:50.055Z,21.27
2022-10-23T20:24:20.125Z,21.25
2022-10-23T20:26:53.395Z,21.34
2022-10-23T20:29:22.623Z,21.43
2022-10-23T20:31:49.835Z,21.70
2022-10-23T20:34:19.028Z,21.75
2022-10-23T20:36:53.704Z,22.23
2022-10-23T20:39:26.457Z,22.39
2022-10-23T20:41:57.450Z,22.48
2022-10-23T20:44:25.060Z,22.57
2022-10-23T20:46:52.629Z,23.10
2022-10-23T20:49:21.267Z,23.11
2022-10-23T20:51:55.700Z,23.44
2022-10-23T20:54:28.800Z,23.40
2022-10-23T20:56:59.682Z,23.29
2022-10-23T20:59:26.835Z,23.39
2022-10-23T21:01:56.187Z,23.58
2022-10-23T21:04:29.005Z,23.70
2022-10-23T21:07:09.860Z,23.98
2022-10-23T21:09:38.545Z,23.95
2022-10-23T21:12:06.620Z,23.90
2022-10-23T21:14:35.355Z,24.28
2022-10-23T21:17:03.900Z,24.24
2022-10-23T21:19:31.310Z,23.84
2022-10-23T21:21:59.680Z,23.77
2022-10-23T21:24:26.898Z,23.98
2022-10-23T21:26:54.015Z,23.94
2022-10-23T21:29:21.194Z,23.97
2022-10-23T21:31:58.197Z,24.09
2022-10-23T21:34:27.404Z,23.99
2022-10-23T21:39:44.261Z,24.15
2022-10-23T21:42:14.465Z,24.02
2022-10-23T21:44:42.087Z,23.82
2022-10-23T21:47:09.608Z,23.74
2022-10-23T21:49:37.036Z,23.93
2022-10-23T21:52:04.693Z,24.00
2022-10-23T21:54:31.942Z,23.94
2022-10-23T21:56:59.314Z,23.78
2022-10-23T21:59:30.153Z,23.91
2022-10-23T22:01:59.407Z,23.79
2022-10-23T22:04:26.764Z,24.27
2022-10-23T22:06:53.871Z,24.24
2022-10-23T22:09:22.863Z,24.22
2022-10-23T22:11:53.152Z,24.48
2022-10-23T22:14:21.363Z,24.59
2022-10-23T22:16:49.718Z,24.22
2022-10-23T22:19:19.316Z,24.11
2022-10-23T22:21:52.751Z,24.16
2022-10-23T22:24:20.505Z,24.05
2022-10-23T22:26:56.916Z,24.32
2022-10-23T22:29:29.421Z,24.22
2022-10-23T22:31:58.217Z,24.10
2022-10-23T22:37:17.149Z,24.29
2022-10-23T22:39:44.740Z,23.76
2022-10-23T22:42:12.343Z,24.03
2022-10-23T22:44:39.547Z,24.19
2022-10-23T22:47:07.205Z,24.04
2022-10-23T22:49:34.428Z,24.14
2022-10-23T22:52:01.624Z,23.98
2022-10-23T22:54:31.200Z,24.11
2022-10-23T22:56:58.791Z,24.18
2022-10-23T22:59:26.005Z,24.44
2022-10-23T23:01:53.137Z,24.04
2022-10-23T23:07:12.211Z,24.03
2022-10-23T23:09:44.717Z,23.78
2022-10-23T23:12:15.014Z,23.68
2022-10-23T23:14:43.414Z,23.43
2022-10-23T23:17:13.129Z,23.35
2022-10-23T23:19:40.593Z,23.29
2022-10-23T23:22:08.436Z,23.31
2022-10-23T23:24:35.986Z,23.23
2022-10-23T23:27:03.268Z,23.27
2022-10-23T23:29:30.426Z,23.19
2022-10-23T23:31:58.072Z,23.07
2022-10-23T23:34:25.347Z,22.85
2022-10-23T23:36:54.772Z,22.70
2022-10-23T23:39:47.240Z,22.68
2022-10-23T23:42:14.807Z,22.57
2022-10-23T23:44:50.318Z,22.61
2022-10-23T23:47:30.094Z,22.58
2022-10-23T23:49:57.197Z,22.51
2022-10-23T23:52:24.359Z,22.38
2022-10-23T23:54:51.675Z,22.21
2022-10-23T23:57:19.070Z,22.09
2022-10-23T23:59:46.825Z,21.97
